Time;durP1;ratioP1;P1;durP2;ratioP2;P2;SDS_P1;SDS_P2;PMS_P1;PMS_P2;Temp;Humidity;BMP_temperature;BMP_pressure;BME280_temperature;BME280_humidity;BME280_pressure;Samples;Min_cycle;Max_cycle;Signal;HPM_P1;HPM_P2
2024/01/02 00:00:34;;;;;;;22.05;12.63;;;;;;;4.57;100.00;98549.59;5077255;28;20404;-83
2024/01/02 00:02:59;;;;;;;23.45;13.32;;;;;;;4.47;100.00;98575.03;5094460;28;20024;-84
2024/01/02 00:05:25;;;;;;;22.90;12.52;;;;;;;4.30;100.00;98532.94;5093787;28;20031;-84
2024/01/02 00:07:50;;;;;;;23.20;13.25;;;;;;;4.26;100.00;98523.19;5076240;28;20032;-83
2024/01/02 00:10:15;;;;;;;22.92;12.95;;;;;;;4.31;100.00;98539.19;5076349;28;20054;-82
2024/01/02 00:12:41;;;;;;;24.33;12.50;;;;;;;3.93;100.00;98469.84;5085252;28;20024;-84
2024/01/02 00:15:07;;;;;;;30.67;14.68;;;;;;;4.27;100.00;98525.53;5093618;28;20411;-85
2024/01/02 00:17:32;;;;;;;21.02;11.85;;;;;;;4.36;100.00;98571.59;5076206;28;20028;-84
2024/01/02 00:19:58;;;;;;;20.70;11.25;;;;;;;3.82;100.00;98480.81;5075817;28;20078;-85
2024/01/02 00:22:23;;;;;;;25.30;13.63;;;;;;;3.73;100.00;98469.56;5072969;28;20477;-83
2024/01/02 00:24:49;;;;;;;18.23;10.48;;;;;;;3.97;100.00;98500.69;5075672;28;20032;-85
2024/01/02 00:27:14;;;;;;;18.13;11.48;;;;;;;4.20;100.00;98525.56;5069055;28;20092;-82
2024/01/02 00:29:40;;;;;;;22.83;12.27;;;;;;;3.91;100.00;98453.09;5088431;28;20050;-82
2024/01/02 00:32:06;;;;;;;31.55;14.60;;;;;;;4.42;100.00;98518.81;5067185;28;20111;-82
2024/01/02 00:34:31;;;;;;;51.13;20.27;;;;;;;3.92;100.00;98463.59;5079892;28;20035;-83
2024/01/02 00:36:57;;;;;;;37.22;16.33;;;;;;;4.12;100.00;98515.84;5075311;28;20118;-82
2024/01/02 00:39:22;;;;;;;20.40;11.15;;;;;;;4.09;100.00;98522.13;5077596;28;20411;-83
2024/01/02 00:41:49;;;;;;;20.40;10.85;;;;;;;3.81;100.00;98475.75;5082916;28;20024;-82
2024/01/02 00:44:15;;;;;;;41.15;15.05;;;;;;;4.24;100.00;98520.84;5076015;28;20012;-82
2024/01/02 00:46:40;;;;;;;36.97;13.80;;;;;;;3.96;100.00;98464.38;5075097;28;20043;-82
2024/01/02 00:49:06;;;;;;;19.42;11.52;;;;;;;4.37;100.00;98519.22;5079957;28;20020;-83
2024/01/02 00:51:31;;;;;;;18.63;10.63;;;;;;;4.05;100.00;98488.53;5095534;28;20043;-81
2024/01/02 00:53:58;;;;;;;37.22;14.00;;;;;;;4.50;100.00;98535.97;5077240;28;20024;-81
2024/01/02 00:56:24;;;;;;;34.90;14.70;;;;;;;4.40;100.00;98491.06;5074893;28;20032;-83
2024/01/02 00:58:49;;;;;;;43.60;15.00;;;;;;;4.76;100.00;98518.22;5074803;28;20423;-83
2024/01/02 01:01:16;;;;;;;30.27;14.13;;;;;;;4.97;100.00;98533.69;5074574;28;20027;-81
2024/01/02 01:03:42;;;;;;;32.17;13.13;;;;;;;4.92;100.00;98502.03;5092984;28;20034;-81
2024/01/02 01:06:07;;;;;;;28.65;13.18;;;;;;;4.69;100.00;98469.00;5092643;28;20024;-81
2024/01/02 01:08:33;;;;;;;22.63;12.18;;;;;;;4.71;100.00;98483.03;5074750;28;20030;-83
2024/01/02 01:10:58;;;;;;;22.77;11.90;;;;;;;4.95;100.00;98531.34;5074678;28;20024;-81
2024/01/02 01:13:24;;;;;;;20.02;11.15;;;;;;;5.16;100.00;98558.56;5075440;28;20401;-81
2024/01/02 01:15:49;;;;;;;24.05;11.13;;;;;;;4.45;100.00;98435.19;5074852;28;20050;-82
2024/01/02 01:18:14;;;;;;;34.22;13.65;;;;;;;5.05;100.00;98513.28;5077528;28;20040;-82
2024/01/02 01:20:40;;;;;;;20.75;11.43;;;;;;;5.14;100.00;98516.31;5075304;28;20532;-81
2024/01/02 01:23:05;;;;;;;21.08;11.98;;;;;;;5.18;100.00;98517.09;5087198;28;20039;-81
2024/01/02 01:25:30;;;;;;;22.35;11.07;;;;;;;5.13;100.00;98504.59;5076194;28;20032;-81
2024/01/02 01:27:56;;;;;;;17.08;9.85;;;;;;;5.14;100.00;98502.63;5074019;28;20028;-81
2024/01/02 01:30:21;;;;;;;18.60;10.95;;;;;;;5.17;100.00;98488.94;5080073;28;20032;-81
2024/01/02 01:32:47;;;;;;;19.42;11.32;;;;;;;5.37;100.00;98486.38;5088344;28;20028;-82
2024/01/02 01:35:12;;;;;;;24.13;13.05;;;;;;;5.24;100.00;98455.97;5074486;28;20071;-83
2024/01/02 01:37:38;;;;;;;28.58;14.10;;;;;;;5.49;100.00;98505.03;5092566;28;20016;-83
2024/01/02 01:40:03;;;;;;;25.00;13.38;;;;;;;5.19;100.00;98453.69;5074326;28;20034;-80
2024/01/02 01:42:29;;;;;;;23.80;12.15;;;;;;;5.55;100.00;98516.31;5081044;28;20048;-81
2024/01/02 01:44:54;;;;;;;19.42;11.02;;;;;;;5.36;100.00;98490.31;5079570;28;20115;-82
2024/01/02 01:47:20;;;;;;;22.98;11.13;;;;;;;4.81;100.00;98416.50;5074584;28;20028;-81
2024/01/02 01:49:45;;;;;;;22.33;11.38;;;;;;;5.30;100.00;98475.50;5064212;28;20032;-82
2024/01/02 01:52:12;;;;;;;21.92;10.88;;;;;;;5.44;100.00;98499.22;5076092;28;20447;-82
2024/01/02 01:54:38;;;;;;;19.75;10.55;;;;;;;5.24;100.00;98488.84;5059623;28;20075;-82
2024/01/02 01:57:04;;;;;;;25.73;11.25;;;;;;;4.90;100.00;98409.38;5070273;28;20052;-82
2024/01/02 01:59:31;;;;;;;27.58;11.68;;;;;;;5.36;100.00;98489.53;5073888;28;20031;-81
2024/01/02 02:01:57;;;;;;;21.10;10.77;;;;;;;5.48;100.00;98516.41;5075226;28;20385;-81
2024/01/02 02:04:25;;;;;;;15.20;9.45;;;;;;;5.22;100.00;98457.56;5073920;28;20036;-82
2024/01/02 02:06:51;;;;;;;22.67;11.25;;;;;;;5.40;100.00;98480.09;5088706;28;20024;-81
2024/01/02 02:09:17;;;;;;;19.88;11.52;;;;;;;5.36;100.00;98489.53;5063985;28;20483;-81
2024/01/02 02:11:44;;;;;;;24.50;10.63;;;;;;;5.36;100.00;98478.56;5074449;28;20016;-81
2024/01/02 02:14:10;;;;;;;18.85;10.52;;;;;;;5.55;100.00;98456.03;5083977;28;20515;-83
2024/01/02 02:16:36;;;;;;;18.23;9.68;;;;;;;5.67;100.00;98445.31;5074323;28;20447;-83
2024/01/02 02:19:02;;;;;;;16.92;9.13;;;;;;;5.42;100.00;98394.75;5092211;28;20031;-82
2024/01/02 02:21:27;;;;;;;22.65;10.77;;;;;;;5.83;100.00;98422.03;5073903;28;20051;-80
2024/01/02 02:23:53;;;;;;;20.63;10.68;;;;;;;6.24;100.00;98446.59;5073466;28;20043;-84
2024/01/02 02:26:18;;;;;;;13.73;8.52;;;;;;;6.25;100.00;98405.03;5073362;28;20032;-82
2024/01/02 02:28:43;;;;;;;13.98;8.00;;;;;;;6.41;100.00;98409.88;5091955;28;20028;-81
2024/01/02 02:31:09;;;;;;;14.23;8.27;;;;;;;6.74;100.00;98457.59;5091355;28;20111;-83
2024/01/02 02:33:35;;;;;;;24.10;12.57;;;;;;;6.75;100.00;98461.91;5073952;28;20420;-81
2024/01/02 02:36:02;;;;;;;14.38;8.77;;;;;;;6.13;100.00;98373.47;5073505;28;20051;-83
2024/01/02 02:38:27;;;;;;;13.63;7.90;;;;;;;6.10;100.00;98360.56;5078353;28;20483;-81
2024/01/02 02:40:53;;;;;;;18.48;8.65;;;;;;;6.68;100.00;98454.56;5073652;28;20087;-83
2024/01/02 02:43:18;;;;;;;15.52;8.82;;;;;;;6.38;100.00;98433.47;5073569;28;20035;-81
2024/01/02 02:45:44;;;;;;;11.32;7.80;;;;;;;6.30;100.00;98450.41;5073683;28;20511;-83
2024/01/02 02:48:09;;;;;;;11.82;7.32;;;;;;;5.90;100.00;98457.63;5091958;28;20559;-83
2024/01/02 02:50:35;;;;;;;12.35;8.00;;;;;;;5.53;100.00;98415.38;5073411;28;20523;-81
2024/01/02 02:53:00;;;;;;;14.13;7.95;;;;;;;5.78;100.00;98466.38;5084599;28;20510;-82
2024/01/02 02:55:25;;;;;;;15.93;8.52;;;;;;;5.49;100.00;98438.50;5071008;28;20060;-83
2024/01/02 02:57:51;;;;;;;16.45;8.32;;;;;;;5.42;100.00;98433.13;5070559;28;20118;-82
2024/01/02 03:00:16;;;;;;;16.77;8.75;;;;;;;5.61;100.00;98463.41;5086718;28;20039;-82
2024/01/02 03:02:42;;;;;;;14.60;8.05;;;;;;;5.54;100.00;98430.63;5076850;28;20420;-81
2024/01/02 03:05:08;;;;;;;16.77;9.23;;;;;;;5.80;100.00;98448.31;5087724;28;20419;-81
2024/01/02 03:07:33;;;;;;;13.07;8.20;;;;;;;5.63;100.00;98399.97;5076830;28;20024;-82
2024/01/02 03:09:59;;;;;;;13.75;8.63;;;;;;;6.07;100.00;98434.69;5076572;28;20030;-81
2024/01/02 03:12:24;;;;;;;15.25;8.02;;;;;;;6.18;100.00;98457.25;5085294;28;20028;-80
2024/01/02 03:14:50;;;;;;;14.77;8.90;;;;;;;6.06;100.00;98446.84;5076839;28;20040;-81
2024/01/02 03:17:15;;;;;;;12.80;8.57;;;;;;;6.09;100.00;98448.75;5076869;28;20031;-81
2024/01/02 03:19:41;;;;;;;13.57;8.57;;;;;;;5.98;100.00;98437.13;5074793;28;20039;-81
2024/01/02 03:22:06;;;;;;;18.75;9.70;;;;;;;6.15;100.00;98441.59;5077701;28;20048;-82
2024/01/02 03:24:32;;;;;;;21.15;10.27;;;;;;;6.19;100.00;98458.03;5076356;28;20027;-82
2024/01/02 03:26:57;;;;;;;22.00;10.45;;;;;;;6.36;100.00;98489.94;5076386;28;20062;-81
2024/01/02 03:29:26;;;;;;;28.73;11.98;;;;;;;5.82;100.00;98398.56;5076467;28;20026;-81
2024/01/02 03:31:52;;;;;;;33.97;13.32;;;;;;;5.85;100.00;98387.53;5078317;28;20077;-83
2024/01/02 03:34:17;;;;;;;30.55;13.23;;;;;;;6.20;100.00;98437.66;5063512;28;20020;-82
2024/01/02 03:36:42;;;;;;;23.67;10.90;;;;;;;5.78;100.00;98370.44;5076354;28;20503;-81
2024/01/02 03:39:08;;;;;;;23.38;11.40;;;;;;;5.76;100.00;98364.56;5074014;28;20106;-81
2024/01/02 03:41:33;;;;;;;15.13;8.55;;;;;;;6.46;100.00;98462.31;5069317;28;20036;-82
2024/01/02 03:43:59;;;;;;;13.98;8.35;;;;;;;6.32;100.00;98448.84;5080476;28;20491;-84
2024/01/02 03:46:24;;;;;;;18.88;9.50;;;;;;;6.05;100.00;98423.34;5067595;28;20025;-83
2024/01/02 03:48:49;;;;;;;13.57;7.90;;;;;;;6.05;100.00;98412.38;5069277;28;20021;-83
2024/01/02 03:51:15;;;;;;;19.83;10.55;;;;;;;6.19;100.00;98441.56;5064631;28;20031;-83
2024/01/02 03:53:40;;;;;;;13.65;8.48;;;;;;;6.36;100.00;98457.78;5086449;28;20039;-81
2024/01/02 03:56:06;;;;;;;16.15;8.55;;;;;;;6.59;100.00;98456.25;5075747;28;20420;-81
2024/01/02 03:58:31;;;;;;;14.25;8.65;;;;;;;6.57;100.00;98434.72;5074969;28;20028;-83
2024/01/02 04:00:57;;;;;;;17.83;9.50;;;;;;;6.57;100.00;98455.91;5065189;28;20042;-81
2024/01/02 04:03:23;;;;;;;17.98;9.30;;;;;;;6.70;100.00;98474.13;5081305;28;20020;-83
2024/01/02 04:05:49;;;;;;;15.00;9.63;;;;;;;6.51;100.00;98415.19;5075222;28;20035;-82
2024/01/02 04:08:15;;;;;;;14.60;9.02;;;;;;;6.41;100.00;98399.69;5074682;28;20381;-80
2024/01/02 04:10:40;;;;;;;14.38;8.85;;;;;;;6.83;100.00;98441.38;5080063;28;20096;-81
2024/01/02 04:13:06;;;;;;;17.48;8.73;;;;;;;7.17;100.00;98482.41;5083833;28;20194;-81
2024/01/02 04:15:31;;;;;;;15.50;9.23;;;;;;;7.11;100.00;98443.66;5063177;28;20032;-81
2024/01/02 04:17:57;;;;;;;15.45;8.75;;;;;;;7.20;100.00;98445.84;5092520;28;20049;-81
2024/01/02 04:20:22;;;;;;;12.52;8.07;;;;;;;7.40;100.00;98454.91;5065107;28;20484;-82
2024/01/02 04:22:54;;;;;;;20.33;8.93;;;;;;;7.45;100.00;98470.88;5087772;28;20431;-82
2024/01/02 04:25:20;;;;;;;17.00;8.55;;;;;;;6.80;100.00;98401.03;5086608;28;20037;-81
2024/01/02 04:27:45;;;;;;;22.70;9.95;;;;;;;7.08;100.00;98454.69;5075724;28;20055;-82
2024/01/02 04:30:11;;;;;;;11.57;7.20;;;;;;;5.46;100.00;98244.81;5075512;28;20522;-81
2024/01/02 04:32:37;;;;;;;14.07;7.90;;;;;;;6.89;100.00;98439.69;5084761;28;20073;-82
2024/01/02 04:35:03;;;;;;;12.68;7.25;;;;;;;6.92;100.00;98447.88;5055501;28;20063;-81
2024/01/02 04:37:28;;;;;;;10.45;6.70;;;;;;;6.78;100.00;98463.81;5070417;28;20032;-82
2024/01/02 04:39:53;;;;;;;15.07;8.07;;;;;;;6.61;100.00;98467.63;5074971;28;20020;-82
2024/01/02 04:42:19;;;;;;;12.15;8.20;;;;;;;6.33;100.00;98446.88;5075518;28;20427;-83
2024/01/02 04:44:44;;;;;;;11.30;7.13;;;;;;;6.63;100.00;98489.94;5092132;28;20030;-80
2024/01/02 04:47:09;;;;;;;11.88;7.28;;;;;;;6.06;100.00;98405.69;5075101;28;20031;-81
2024/01/02 04:49:35;;;;;;;11.95;7.80;;;;;;;6.51;100.00;98467.34;5076024;28;20466;-80
2024/01/02 04:52:00;;;;;;;13.93;8.35;;;;;;;6.34;100.00;98454.66;5084296;28;20118;-80
2024/01/02 04:54:26;;;;;;;15.15;8.68;;;;;;;5.98;100.00;98405.00;5081959;28;20520;-82
2024/01/02 04:56:51;;;;;;;13.55;8.23;;;;;;;6.50;100.00;98474.03;5068322;28;20045;-82
2024/01/02 04:59:17;;;;;;;14.73;7.95;;;;;;;6.84;100.00;98459.41;5063006;28;20020;-82
2024/01/02 05:01:42;;;;;;;12.10;7.35;;;;;;;7.24;100.00;98485.78;5092936;28;20066;-81
2024/01/02 05:04:08;;;;;;;11.00;7.05;;;;;;;7.55;100.00;98489.16;5075040;28;20016;-82
2024/01/02 05:06:33;;;;;;;13.30;7.32;;;;;;;7.45;100.00;98459.13;5074658;28;20059;-81
2024/01/02 05:08:59;;;;;;;14.90;7.85;;;;;;;6.58;100.00;98311.97;5073955;28;20020;-83
2024/01/02 05:11:24;;;;;;;13.05;7.50;;;;;;;7.04;100.00;98396.28;5080237;28;20058;-81
2024/01/02 05:13:50;;;;;;;11.90;7.65;;;;;;;7.54;100.00;98464.81;5062105;28;20020;-82
2024/01/02 05:16:15;;;;;;;13.60;8.15;;;;;;;7.54;100.00;98481.31;5074470;28;20019;-83
2024/01/02 05:18:40;;;;;;;12.35;7.38;;;;;;;6.64;100.00;98355.00;5066917;28;20102;-81
2024/01/02 05:21:07;;;;;;;10.95;7.07;;;;;;;7.49;100.00;98459.81;5067895;28;20052;-81
2024/01/02 05:23:33;;;;;;;13.38;7.53;;;;;;;7.28;100.00;98434.31;5074328;28;20068;-81
2024/01/02 05:25:58;;;;;;;13.57;7.22;;;;;;;7.29;100.00;98474.31;5092478;28;20034;-83
2024/01/02 05:28:24;;;;;;;11.25;7.28;;;;;;;7.03;100.00;98433.97;5074581;28;20412;-82
2024/01/02 05:30:49;;;;;;;11.52;7.35;;;;;;;7.01;100.00;98441.84;5075015;28;20020;-81
2024/01/02 05:33:15;;;;;;;14.20;7.82;;;;;;;7.38;100.00;98478.47;5074074;28;20031;-81
2024/01/02 05:35:40;;;;;;;10.93;7.30;;;;;;;7.09;100.00;98420.53;5078696;28;20029;-81
2024/01/02 05:38:05;;;;;;;11.15;7.68;;;;;;;7.51;100.00;98479.44;5060718;28;20535;-81
2024/01/02 05:40:31;;;;;;;13.02;7.30;;;;;;;7.60;100.00;98483.16;5074350;28;20016;-83
2024/01/02 05:42:56;;;;;;;12.70;7.47;;;;;;;7.77;100.00;98489.53;5077838;28;20609;-82
2024/01/02 05:45:22;;;;;;;11.35;7.30;;;;;;;7.81;100.00;98476.47;5074221;28;20099;-82
2024/01/02 05:47:47;;;;;;;10.68;7.15;;;;;;;7.53;100.00;98424.81;5074401;28;20031;-82
2024/01/02 05:50:13;;;;;;;12.75;7.60;;;;;;;7.82;100.00;98483.53;5074148;28;20565;-81
2024/01/02 05:52:42;;;;;;;12.30;7.18;;;;;;;7.92;100.00;98479.78;5091199;28;20074;-81
2024/01/02 05:55:08;;;;;;;11.27;6.70;;;;;;;7.67;100.00;98443.75;5092372;28;20111;-82
2024/01/02 05:57:33;;;;;;;9.38;6.25;;;;;;;8.19;100.00;98498.91;5074541;28;20056;-81
2024/01/02 05:59:59;;;;;;;14.75;7.78;;;;;;;8.08;100.00;98484.56;5073926;28;20055;-82
2024/01/02 06:02:24;;;;;;;15.75;8.90;;;;;;;8.09;100.00;98464.09;5091703;28;20064;-81
2024/01/02 06:04:49;;;;;;;14.10;7.70;;;;;;;8.06;100.00;98454.75;5074164;28;20036;-81
2024/01/02 06:07:15;;;;;;;10.05;6.60;;;;;;;7.86;100.00;98406.44;5085647;28;20480;-81
2024/01/02 06:09:40;;;;;;;10.23;6.85;;;;;;;8.39;100.00;98465.84;5080412;28;20502;-81
2024/01/02 06:12:06;;;;;;;10.80;6.65;;;;;;;7.89;100.00;98380.84;5082916;28;20024;-82
2024/01/02 06:14:31;;;;;;;10.60;7.13;;;;;;;8.42;100.00;98454.78;5073956;28;20392;-83
2024/01/02 06:16:57;;;;;;;13.48;7.75;;;;;;;8.47;100.00;98467.25;5073726;28;20020;-81
2024/01/02 06:19:23;;;;;;;12.30;7.22;;;;;;;8.52;100.00;98459.25;5092421;28;20036;-82
2024/01/02 06:21:48;;;;;;;10.60;6.75;;;;;;;8.49;100.00;98459.34;5089371;28;20040;-83
2024/01/02 06:24:13;;;;;;;15.60;8.20;;;;;;;8.11;100.00;98472.72;5073813;28;20028;-81
2024/01/02 06:26:40;;;;;;;13.75;7.57;;;;;;;7.78;100.00;98476.56;5091303;28;20057;-81
2024/01/02 06:29:05;;;;;;;16.05;7.63;;;;;;;7.75;100.00;98481.69;5073528;28;20535;-80
2024/01/02 06:31:31;;;;;;;19.58;8.68;;;;;;;7.50;100.00;98444.88;5090869;28;20031;-83
2024/01/02 06:33:56;;;;;;;24.30;9.75;;;;;;;7.70;100.00;98473.16;5091136;28;20039;-81
2024/01/02 06:36:22;;;;;;;21.40;9.65;;;;;;;7.83;100.00;98487.84;5081614;28;20024;-81
2024/01/02 06:38:47;;;;;;;17.45;9.00;;;;;;;7.57;100.00;98455.75;5070401;28;20184;-80
2024/01/02 06:41:13;;;;;;;18.13;9.02;;;;;;;7.70;100.00;98467.66;5076713;28;20020;-83
2024/01/02 06:43:39;;;;;;;14.95;8.93;;;;;;;7.80;100.00;98472.19;5083661;28;20030;-82
2024/01/02 06:46:04;;;;;;;17.77;8.98;;;;;;;7.99;100.00;98492.63;5092223;28;20103;-83
2024/01/02 06:48:30;;;;;;;23.63;11.55;;;;;;;7.88;100.00;98479.09;5077759;28;20028;-84
2024/01/02 06:50:55;;;;;;;13.50;8.13;;;;;;;7.66;100.00;98469.69;5078531;28;20036;-85
2024/01/02 06:53:21;;;;;;;18.83;9.55;;;;;;;8.12;100.00;98527.34;5077890;28;20035;-86
2024/01/02 06:55:46;;;;;;;16.77;9.68;;;;;;;8.02;100.00;98519.28;5087121;28;20036;-82
2024/01/02 06:58:11;;;;;;;15.15;8.20;;;;;;;8.29;100.00;98555.69;5078435;28;20089;-82
2024/01/02 07:00:37;;;;;;;13.88;8.80;;;;;;;8.08;100.00;98501.84;5086172;28;20521;-81
2024/01/02 07:03:04;;;;;;;15.82;8.35;;;;;;;8.32;100.00;98516.31;5072566;28;20056;-81
2024/01/02 07:05:29;;;;;;;13.77;7.57;;;;;;;8.74;100.00;98568.94;5075682;28;20119;-84
2024/01/02 07:07:55;;;;;;;13.43;7.97;;;;;;;8.59;100.00;98518.91;5095188;28;20059;-83
2024/01/02 07:10:21;;;;;;;10.98;7.47;;;;;;;8.73;100.00;98537.88;5079276;28;20077;-82
2024/01/02 07:12:47;;;;;;;12.00;7.53;;;;;;;9.08;100.00;98588.63;5081709;28;20035;-82
2024/01/02 07:15:12;;;;;;;15.00;8.80;;;;;;;8.97;100.00;98552.28;5080308;28;20028;-83
2024/01/02 07:17:38;;;;;;;18.63;9.43;;;;;;;8.97;100.00;98564.06;5074898;28;20028;-82
2024/01/02 07:20:04;;;;;;;16.10;9.25;;;;;;;8.56;100.00;98483.94;5076868;28;20081;-82
2024/01/02 07:22:29;;;;;;;14.90;8.50;;;;;;;9.18;100.00;98550.97;5074841;28;20048;-83
2024/01/02 07:24:55;;;;;;;14.40;8.80;;;;;;;8.75;100.00;98505.16;5065805;28;20031;-82
2024/01/02 07:27:21;;;;;;;13.23;9.05;;;;;;;8.76;100.00;98525.19;5077682;28;20024;-84
2024/01/02 07:29:47;;;;;;;15.95;9.35;;;;;;;9.11;100.00;98557.44;5067442;28;20423;-81
2024/01/02 07:32:13;;;;;;;19.05;10.88;;;;;;;8.97;100.00;98510.94;5079408;28;20039;-82
2024/01/02 07:34:38;;;;;;;24.92;12.95;;;;;;;9.38;100.00;98559.94;5090739;28;20046;-82
2024/01/02 07:37:04;;;;;;;27.58;15.35;;;;;;;9.48;100.00;98561.66;5079703;28;20440;-82
2024/01/02 07:39:29;;;;;;;23.67;12.90;;;;;;;8.63;100.00;98419.66;5077207;28;20415;-82
2024/01/02 07:41:55;;;;;;;23.48;13.43;;;;;;;9.36;100.00;98543.06;5076241;28;20028;-82
2024/01/02 07:44:21;;;;;;;22.10;11.95;;;;;;;9.29;100.00;98530.22;5077844;28;20389;-81
2024/01/02 07:46:47;;;;;;;27.10;13.43;;;;;;;9.64;100.00;98566.41;5095288;28;20075;-84
2024/01/02 07:49:12;;;;;;;17.00;9.98;;;;;;;9.76;100.00;98582.97;5077956;28;20469;-83
2024/01/02 07:51:38;;;;;;;20.92;11.52;;;;;;;9.67;100.00;98580.09;5076384;28;20182;-83
2024/01/02 07:54:03;;;;;;;15.68;9.50;;;;;;;9.78;100.00;98590.84;5094745;28;20020;-83
2024/01/02 07:56:30;;;;;;;20.23;9.93;;;;;;;9.88;100.00;98594.53;5083240;28;20027;-86
2024/01/02 07:58:56;;;;;;;18.77;9.93;;;;;;;10.04;100.00;98608.31;5087982;28;20021;-83
2024/01/02 08:01:22;;;;;;;17.83;10.40;;;;;;;10.16;100.00;98613.09;5067889;28;20488;-83
2024/01/02 08:03:47;;;;;;;21.35;11.20;;;;;;;10.05;100.00;98585.78;5077444;28;20028;-82
2024/01/02 08:06:13;;;;;;;21.00;10.52;;;;;;;9.91;99.38;98560.53;5085492;28;20081;-82
2024/01/02 08:08:41;;;;;;;16.58;9.50;;;;;;;10.40;99.17;98616.41;5077244;28;20403;-82
2024/01/02 08:11:08;;;;;;;12.35;7.47;;;;;;;10.19;97.95;98584.63;5078936;28;20071;-82
2024/01/02 08:13:34;;;;;;;13.52;8.43;;;;;;;10.54;98.65;98625.09;5079521;28;20055;-82
2024/01/02 08:16:00;;;;;;;13.93;8.07;;;;;;;10.33;98.47;98587.00;5050811;28;20039;-83
2024/01/02 08:18:25;;;;;;;11.18;7.60;;;;;;;10.38;97.27;98600.28;5094034;28;20035;-82
2024/01/02 08:20:50;;;;;;;14.15;8.65;;;;;;;10.70;97.58;98632.53;5079542;28;20028;-82
2024/01/02 08:23:16;;;;;;;14.07;8.25;;;;;;;10.66;96.23;98639.38;5092709;28;20040;-83
2024/01/02 08:25:41;;;;;;;14.13;8.15;;;;;;;10.71;96.65;98634.09;5076121;28;20038;-83
2024/01/02 08:28:07;;;;;;;14.00;7.60;;;;;;;10.44;96.06;98601.28;5075133;28;20024;-83
2024/01/02 08:30:32;;;;;;;10.07;6.55;;;;;;;10.16;98.07;98568.94;5075297;28;20145;-82
2024/01/02 08:32:58;;;;;;;14.88;7.40;;;;;;;10.59;98.67;98638.38;5070015;28;20025;-84
2024/01/02 08:35:24;;;;;;;12.60;7.55;;;;;;;10.52;99.07;98637.78;5074896;28;20044;-83
2024/01/02 08:37:50;;;;;;;11.90;6.93;;;;;;;10.57;99.88;98643.53;5060599;28;20077;-83
2024/01/02 08:40:15;;;;;;;;;;;;;;;10.57;100.00;98643.53;5075681;28;20034;-86
2024/01/02 08:42:41;;;;;;;;;;;;;;;10.59;100.00;98646.66;5091114;28;19912;-82
2024/01/02 08:45:09;;;;;;;;;;;;;;;10.47;100.00;98641.88;5074493;28;19916;-84
2024/01/02 08:47:36;;;;;;;;;;;;;;;10.45;100.00;98638.75;5066434;28;19978;-83
2024/01/02 08:50:01;;;;;;;;;;;;;;;10.42;100.00;98644.38;5082769;28;20387;-84
2024/01/02 08:52:27;;;;;;;;;;;;;;;10.44;100.00;98648.25;5083974;28;19915;-83
2024/01/02 08:54:53;;;;;;;;;;;;;;;10.32;100.00;98645.44;5074543;28;20455;-84
2024/01/02 08:57:18;;;;;;;;;;;;;;;10.37;100.00;98639.41;5074580;28;19915;-83
2024/01/02 08:59:43;;;;;;;;;;;;;;;10.45;100.00;98638.75;5092510;28;20383;-83
2024/01/02 09:02:09;;;;;;;;;;;;;;;10.58;100.00;98641.56;5074750;28;20010;-82
2024/01/02 09:04:35;;;;;;;;;;;;;;;10.56;100.00;98636.47;5068141;28;19993;-83
2024/01/02 09:07:00;;;;;;;;;;;;;;;10.52;100.00;98633.03;5070318;28;19912;-82
2024/01/02 09:09:25;;;;;;;;;;;;;;;10.57;100.00;98638.00;5066074;28;19918;-83
2024/01/02 09:11:51;;;;;;;;;;;;;;;10.64;100.00;98628.75;5085149;28;20288;-83
2024/01/02 09:14:16;;;;;;;;;;;;;;;10.66;100.00;98633.84;5063719;28;19935;-81
2024/01/02 09:16:43;;;;;;;;;;;;;;;10.76;100.00;98638.28;5080584;28;19959;-83
2024/01/02 09:19:08;;;;;;;;;;;;;;;10.78;100.00;98644.94;5075797;28;20295;-82
2024/01/02 09:21:34;;;;;;;;;;;;;;;10.70;100.00;98640.03;5078719;28;19922;-82
2024/01/02 09:23:59;;;;;;;;;;;;;;;10.73;100.00;98650.22;5075257;28;19920;-82
2024/01/02 09:26:25;;;;;;;;;;;;;;;10.88;100.00;98654.13;5073750;28;19990;-83
2024/01/02 09:28:51;;;;;;;;;;;;;;;11.03;100.00;98649.69;5055179;28;19912;-81
2024/01/02 09:31:18;;;;;;;;;;;;;;;11.22;100.00;98639.66;5069967;28;20372;-83
2024/01/02 09:33:44;;;;;;;;;;;;;;;11.30;100.00;98641.78;5076666;28;19912;-83
2024/01/02 09:36:09;;;;;;;;;;;;;;;11.30;100.00;98643.75;5079017;28;19923;-83
2024/01/02 09:38:38;;;;;;;;;;;;;;;11.26;100.00;98641.13;5091683;28;19912;-81
2024/01/02 09:41:06;;;;;;;;;;;;;;;11.30;100.00;98641.00;5078155;28;19912;-82
2024/01/02 09:43:42;;;;;;;;;;;;;;;11.27;100.00;98650.19;5083315;28;20368;-82
2024/01/02 09:46:13;;;;;;;;;;;;;;;11.35;100.00;98649.50;5084802;28;20384;-84
2024/01/02 09:48:48;;;;;;;;;;;;;;;11.28;100.00;98649.72;5075023;28;19919;-81
2024/01/02 09:51:13;;;;;;;;;;;;;;;11.34;99.53;98658.25;5082278;28;19923;-82
2024/01/02 09:54:11;;;;;;;;;;;;;;;11.40;99.64;98651.72;5090364;28;19924;-81
2024/01/02 09:56:54;;;;;;;;;;;;;;;11.50;98.19;98649.06;5065950;28;20396;-81
2024/01/02 09:59:49;;;;;;;;;;;;;;;11.58;97.79;98648.38;5060656;28;19920;-80
2024/01/02 10:02:33;;;;;;;;;;;;;;;11.60;97.79;98640.41;5054666;28;19912;-81
2024/01/02 10:05:08;;;;;;;;;;;;;;;11.58;96.47;98637.31;5080418;28;19912;-81
2024/01/02 10:07:52;;;;;;;;;;;;;;;11.51;94.34;98634.03;5076526;28;19916;-79
2024/01/02 10:10:25;;;;;;;;;;;;;;;11.49;92.67;98642.00;5093310;28;19922;-81
2024/01/02 10:13:26;;;;;;;;;;;;;;;11.47;92.63;98638.88;5075385;28;19977;-81
2024/01/02 10:16:08;;;;;;;;;;;;;;;11.48;93.21;98626.59;5033358;28;20400;-81
2024/01/02 10:18:36;;;;;;;;;;;;;;;11.73;88.31;98619.06;5068292;28;19912;-81
2024/01/02 10:21:02;;;;;;;;;;;;;;;11.83;82.48;98619.94;5083400;28;19938;-81
2024/01/02 10:23:47;;;;;;;;;;;;;;;12.04;81.21;98618.44;5075941;28;20391;-81
2024/01/02 10:26:12;;;;;;;;;;;;;;;12.15;78.57;98622.38;5075857;28;19996;-81
2024/01/02 10:28:40;;;;;;;;;;;;;;;12.24;76.76;98607.81;5070909;28;19947;-81
2024/01/02 10:31:18;;;;;;;;;;;;;;;12.35;74.74;98615.78;5068003;28;19907;-81
2024/01/02 10:33:52;;;;;;;;;;;;;;;12.58;74.37;98627.19;5084908;28;19918;-81
2024/01/02 10:36:18;;;;;;;;;;;;;;;12.93;72.09;98627.06;5077232;28;19911;-80
2024/01/02 10:38:53;;;;;;;;;;;;;;;13.17;70.86;98616.28;5082797;28;19915;-80
2024/01/02 10:41:29;;;;;;;;;;;;;;;13.43;74.78;98609.31;5063635;28;19999;-80
2024/01/02 10:43:58;;;;;;;;;;;;;;;13.44;73.31;98613.63;5075692;28;19973;-80
2024/01/02 10:46:37;;;;;;;;;;;;;;;13.44;73.62;98606.03;5083466;28;19911;-81
2024/01/02 10:49:37;;;;;;;;;;;;;;;13.47;72.93;98601.59;5095331;28;19908;-81
2024/01/02 10:52:26;;;;;;;;;;;;;;;13.42;71.63;98599.41;5052124;28;19915;-81
2024/01/02 10:54:51;;;;;;;;;;;;;;;13.55;72.20;98602.84;5065946;28;19916;-81
2024/01/02 10:57:26;;;;;;;;;;;;;;;13.54;71.78;98592.97;5056703;28;19931;-81
2024/01/02 10:59:55;;;;;;;;;;;;;;;13.58;70.18;98584.50;5086478;28;19912;-81
2024/01/02 11:02:20;;;;;;;;;;;;;;;13.54;70.53;98583.88;5076611;28;20307;-80
2024/01/02 11:04:55;;;;;;;;;;;;;;;13.48;68.10;98589.25;5076524;28;19916;-81
2024/01/02 11:07:21;;;;;;;;;;;;;;;13.47;65.18;98593.25;5076511;28;20383;-81
2024/01/02 11:09:55;;;;;;;;;;;;;;;13.40;64.32;98591.53;5094273;28;19994;-81
2024/01/02 11:12:22;;;;;;;;;;;;;;;13.49;64.95;98590.03;5076561;28;19919;-81
2024/01/02 11:14:49;;;;;;;;;;;;;;;13.34;63.77;98573.94;5073416;28;20609;-80
2024/01/02 11:17:15;;;;;;;;;;;;;;;13.21;65.00;98586.38;5083758;28;19908;-81
2024/01/02 11:19:46;;;;;;;;;;;;;;;13.08;65.79;98575.38;5087894;28;19969;-81
2024/01/02 11:22:15;;;;;;;;;;;;;;;12.99;64.87;98564.25;5076223;28;19973;-81
2024/01/02 11:24:45;;;;;;;;;;;;;;;12.94;65.33;98576.72;5094413;28;19924;-82
2024/01/02 11:27:11;;;;;;;;;;;;;;;12.96;66.82;98565.91;5082244;28;19908;-81
2024/01/02 11:29:41;;;;;;;1.55;1.45;;;;;;;12.89;66.21;98546.81;5069810;28;20384;-82
2024/01/02 11:32:15;;;;;;;0.93;0.70;;;;;;;12.74;65.62;98545.78;5056099;28;20072;-81
2024/01/02 11:35:13;;;;;;;1.30;0.90;;;;;;;13.01;65.78;98567.34;5072194;28;20039;-82
2024/01/02 11:37:40;;;;;;;1.67;0.80;;;;;;;12.92;65.22;98534.00;5054106;28;20036;-81